Time,TemperatureF,DewpointF,PressureIn,WindDirection,WindDirectionDegrees,WindSpeedMPH,WindSpeedGustMPH,Humidity,HourlyPrecipIn,Conditions,Clouds,dailyrainin,SoftwareType,DateUTC
2013-09-25 00:01:00,77.6,76.1,28.64,WSW,242,0.4,2.3,95,0.00,,,0.00,WeatherDisplay:10.37,2013-09-25 05:01:00,
2013-09-25 00:06:00,77.5,76.0,28.64,WSW,239,0.8,1.2,95,0.00,,,0.00,WeatherDisplay:10.37,2013-09-25 05:06:00,
2013-09-25 00:11:00,77.5,76.0,28.64,SW,235,1.3,2.1,95,0.00,,,0.00,WeatherDisplay:10.37,2013-09-25 05:11:00,
2013-09-25 00:16:00,77.5,76.0,28.64,WSW,246,0.2,2.3,95,0.00,,,0.00,WeatherDisplay:10.37,2013-09-25 05:16:00,
2013-09-25 00:21:00,77.4,75.9,28.64,SSW,213,0.4,2.3,95,0.00,,,0.00,WeatherDisplay:10.37,2013-09-25 05:21:00,
2013-09-25 00:26:00,77.4,75.9,28.64,WSW,238,0.3,1.2,95,0.00,,,0.00,WeatherDisplay:10.37,2013-09-25 05:26:00,
2013-09-25 00:31:00,77.5,76.0,28.64,SSW,195,1.6,2.3,95,0.00,,,0.00,WeatherDisplay:10.37,2013-09-25 05:31:00,
2013-09-25 00:36:00,77.5,76.0,28.64,SW,225,0.6,2.3,95,0.00,,,0.00,WeatherDisplay:10.37,2013-09-25 05:36:00,
2013-09-25 00:41:00,77.5,76.0,28.64,SSW,207,0.4,2.3,95,0.00,,,0.00,WeatherDisplay:10.37,2013-09-25 05:41:00,
2013-09-25 00:46:00,77.4,75.9,28.64,WSW,241,0.0,1.2,95,0.00,,,0.00,WeatherDisplay:10.37,2013-09-25 05:46:00,
2013-09-25 00:51:00,77.4,75.9,28.64,SW,225,0.5,1.2,95,0.00,,,0.00,WeatherDisplay:10.37,2013-09-25 05:51:00,
2013-09-25 00:56:00,77.4,75.9,28.64,SW,223,0.3,2.3,95,0.00,,,0.00,WeatherDisplay:10.37,2013-09-25 05:56:00,
2013-09-25 01:01:00,77.4,75.9,28.64,WSW,238,0.0,1.2,95,0.00,,,0.00,WeatherDisplay:10.37,2013-09-25 06:01:00,
2013-09-25 01:06:00,77.3,75.8,28.64,SW,227,0.3,1.2,95,0.00,,,0.00,WeatherDisplay:10.37,2013-09-25 06:06:00,
2013-09-25 01:10:00,77.2,75.7,28.64,WSW,242,0.0,1.2,95,0.00,,,0.00,WeatherDisplay:10.37,2013-09-25 06:10:00,
2013-09-25 01:15:00,77.2,77.2,28.63,WSW,249,0.0,1.2,100,0.00,,,0.00,WeatherDisplay:10.37,2013-09-25 06:15:00,
2013-09-25 01:21:00,77.1,77.1,28.64,SW,217,0.9,1.2,100,0.00,,,0.00,WeatherDisplay:10.37,2013-09-25 06:21:00,
2013-09-25 01:26:00,77.0,77.0,28.64,SW,227,0.5,2.3,100,0.00,,,0.00,WeatherDisplay:10.37,2013-09-25 06:26:00,
2013-09-25 01:31:00,76.9,76.9,28.64,WSW,242,0.2,1.2,100,0.00,,,0.00,WeatherDisplay:10.37,2013-09-25 06:31:00,
2013-09-25 01:36:00,76.8,75.3,28.64,SW,233,0.0,0.0,95,0.00,,,0.00,WeatherDisplay:10.37,2013-09-25 06:36:00,
2013-09-25 01:41:00,76.7,76.7,28.64,West,262,0.1,1.2,100,0.00,,,0.00,WeatherDisplay:10.37,2013-09-25 06:41:00,
2013-09-25 01:46:00,76.6,75.1,28.64,WSW,249,0.0,0.0,95,0.00,,,0.00,WeatherDisplay:10.37,2013-09-25 06:46:00,
2013-09-25 01:51:00,76.5,76.5,28.64,SW,230,0.2,1.2,100,0.00,,,0.00,WeatherDisplay:10.37,2013-09-25 06:51:00,
2013-09-25 01:56:00,76.5,76.5,28.64,WSW,238,0.1,1.2,100,0.00,,,0.00,WeatherDisplay:10.37,2013-09-25 06:56:00,
2013-09-25 02:01:00,76.5,75.0,28.64,WSW,238,0.0,1.2,95,0.00,,,0.00,WeatherDisplay:10.37,2013-09-25 07:01:00,
2013-09-25 02:06:00,76.4,74.9,28.64,West,263,0.2,1.2,95,0.00,,,0.00,WeatherDisplay:10.37,2013-09-25 07:06:00,
2013-09-25 02:11:00,76.4,74.9,28.64,WSW,252,0.5,2.3,95,0.00,,,0.00,WeatherDisplay:10.37,2013-09-25 07:11:00,
2013-09-25 02:16:00,76.4,74.9,28.63,WSW,242,0.0,0.0,95,0.00,,,0.00,WeatherDisplay:10.37,2013-09-25 07:16:00,
2013-09-25 02:21:00,76.3,74.8,28.63,WSW,249,0.0,0.0,95,0.00,,,0.00,WeatherDisplay:10.37,2013-09-25 07:21:00,
2013-09-25 02:26:00,76.3,74.8,28.63,West,260,0.5,2.3,95,0.00,,,0.00,WeatherDisplay:10.37,2013-09-25 07:26:00,
2013-09-25 02:31:00,76.2,74.7,28.63,WSW,251,0.2,1.2,95,0.00,,,0.00,WeatherDisplay:10.37,2013-09-25 07:31:00,
2013-09-25 02:36:00,76.2,74.7,28.63,WSW,242,0.3,1.2,95,0.00,,,0.00,WeatherDisplay:10.37,2013-09-25 07:36:00,
2013-09-25 02:41:00,76.1,74.6,28.63,WSW,242,0.3,2.3,95,0.00,,,0.00,WeatherDisplay:10.37,2013-09-25 07:41:00,
2013-09-25 02:46:00,76.1,74.6,28.63,WSW,239,0.1,1.2,95,0.00,,,0.00,WeatherDisplay:10.37,2013-09-25 07:46:00,
2013-09-25 02:51:00,76.1,74.6,28.63,West,270,0.5,2.3,95,0.00,,,0.00,WeatherDisplay:10.37,2013-09-25 07:51:00,
2013-09-25 02:56:00,76.1,74.6,28.63,SW,232,0.4,1.2,95,0.00,,,0.00,WeatherDisplay:10.37,2013-09-25 07:56:00,
2013-09-25 03:01:00,76.1,74.6,28.62,SW,222,0.1,1.2,95,0.00,,,0.00,WeatherDisplay:10.37,2013-09-25 08:01:00,
2013-09-25 03:06:00,76.1,74.6,28.63,SW,235,0.1,1.2,95,0.00,,,0.00,WeatherDisplay:10.37,2013-09-25 08:06:00,
2013-09-25 03:11:00,76.1,74.6,28.63,WSW,241,0.0,1.2,95,0.00,,,0.00,WeatherDisplay:10.37,2013-09-25 08:11:00,
2013-09-25 03:16:00,76.1,74.6,28.63,WSW,253,1.0,3.5,95,0.00,,,0.00,WeatherDisplay:10.37,2013-09-25 08:16:00,
2013-09-25 03:21:00,76.1,74.6,28.62,WSW,256,0.8,2.3,95,0.00,,,0.00,WeatherDisplay:10.37,2013-09-25 08:21:00,
2013-09-25 03:26:00,76.1,76.1,28.62,West,260,0.9,4.6,100,0.00,,,0.00,WeatherDisplay:10.37,2013-09-25 08:26:00,
2013-09-25 03:31:00,76.1,76.1,28.62,SW,225,1.5,2.3,100,0.00,,,0.00,WeatherDisplay:10.37,2013-09-25 08:31:00,
2013-09-25 03:36:00,76.1,74.6,28.62,WSW,256,0.5,5.8,95,0.00,,,0.00,WeatherDisplay:10.37,2013-09-25 08:36:00,
2013-09-25 03:41:00,76.1,74.6,28.62,SW,218,0.5,2.3,95,0.00,,,0.00,WeatherDisplay:10.37,2013-09-25 08:41:00,
2013-09-25 03:46:00,76.0,74.5,28.62,WSW,239,1.8,3.5,95,0.00,,,0.00,WeatherDisplay:10.37,2013-09-25 08:46:00,
2013-09-25 03:51:00,76.0,74.5,28.62,WNW,282,1.1,3.5,95,0.00,,,0.00,WeatherDisplay:10.37,2013-09-25 08:51:00,
2013-09-25 03:56:00,76.0,74.1,28.62,WNW,286,0.9,2.3,94,0.00,,,0.00,WeatherDisplay:10.37,2013-09-25 08:56:00,
2013-09-25 04:01:00,75.9,74.0,28.62,WSW,255,0.2,1.2,94,0.00,,,0.00,WeatherDisplay:10.37,2013-09-25 09:01:00,
2013-09-25 04:06:00,75.7,73.8,28.62,NW,308,0.7,1.9,94,0.00,,,0.00,WeatherDisplay:10.37,2013-09-25 09:06:00,
2013-09-25 04:11:00,75.4,73.6,28.62,West,269,0.1,1.2,94,0.00,,,0.00,WeatherDisplay:10.37,2013-09-25 09:11:00,
2013-09-25 04:16:00,75.2,73.7,28.62,West,275,0.0,0.0,95,0.00,,,0.00,WeatherDisplay:10.37,2013-09-25 09:16:00,
2013-09-25 04:21:00,74.9,73.4,28.62,West,275,0.1,0.0,95,0.00,,,0.00,WeatherDisplay:10.37,2013-09-25 09:21:00,
2013-09-25 04:26:00,74.7,73.2,28.62,WNW,299,0.2,0.0,95,0.00,,,0.00,WeatherDisplay:10.37,2013-09-25 09:26:00,
2013-09-25 04:31:00,74.4,72.9,28.62,WNW,297,0.1,1.2,95,0.00,,,0.00,WeatherDisplay:10.37,2013-09-25 09:31:00,
2013-09-25 04:35:00,74.3,72.8,28.62,WSW,248,0.0,1.2,95,0.00,,,0.00,WeatherDisplay:10.37,2013-09-25 09:35:00,
2013-09-25 04:40:00,74.2,72.7,28.62,WSW,245,0.0,1.2,95,0.00,,,0.00,WeatherDisplay:10.37,2013-09-25 09:40:00,
2013-09-25 04:45:00,74.0,72.5,28.62,WSW,245,0.0,0.0,95,0.00,,,0.00,WeatherDisplay:10.37,2013-09-25 09:45:00,
2013-09-25 04:50:00,73.8,72.3,28.62,West,273,0.0,0.0,95,0.00,,,0.00,WeatherDisplay:10.37,2013-09-25 09:50:00,
2013-09-25 04:55:00,73.6,72.1,28.62,West,273,0.0,0.0,95,0.00,,,0.00,WeatherDisplay:10.37,2013-09-25 09:55:00,
2013-09-25 05:00:00,73.4,71.9,28.62,West,260,0.0,0.0,95,0.00,,,0.00,WeatherDisplay:10.37,2013-09-25 10:00:00,
2013-09-25 05:05:00,73.2,73.2,28.62,West,259,0.0,0.0,100,0.00,,,0.00,WeatherDisplay:10.37,2013-09-25 10:05:00,
2013-09-25 05:10:00,73.0,71.5,28.62,West,259,0.0,0.0,95,0.00,,,0.00,WeatherDisplay:10.37,2013-09-25 10:10:00,
2013-09-25 05:15:00,72.9,72.9,28.62,West,259,0.0,0.0,100,0.00,,,0.00,WeatherDisplay:10.37,2013-09-25 10:15:00,
2013-09-25 05:20:00,72.7,72.7,28.62,West,259,0.0,0.0,100,0.00,,,0.00,WeatherDisplay:10.37,2013-09-25 10:20:00,
2013-09-25 05:25:00,72.4,72.4,28.62,West,259,0.0,0.0,100,0.00,,,0.00,WeatherDisplay:10.37,2013-09-25 10:25:00,
2013-09-25 05:30:00,72.4,72.4,28.62,West,259,0.0,0.0,100,0.00,,,0.00,WeatherDisplay:10.37,2013-09-25 10:30:00,
2013-09-25 05:35:00,72.4,72.4,28.63,West,259,0.0,0.0,100,0.00,,,0.00,WeatherDisplay:10.37,2013-09-25 10:35:00,
2013-09-25 05:40:00,72.2,72.2,28.63,West,259,0.0,0.0,100,0.00,,,0.00,WeatherDisplay:10.37,2013-09-25 10:40:00,
2013-09-25 05:45:00,71.8,71.8,28.63,West,259,0.0,0.0,100,0.00,,,0.00,WeatherDisplay:10.37,2013-09-25 10:45:00,
2013-09-25 05:50:00,71.4,71.4,28.63,West,259,0.0,0.0,100,0.00,,,0.00,WeatherDisplay:10.37,2013-09-25 10:50:00,
2013-09-25 05:55:00,71.2,71.2,28.63,West,259,0.0,0.0,100,0.00,,,0.00,WeatherDisplay:10.37,2013-09-25 10:55:00,
2013-09-25 06:00:00,71.1,71.1,28.63,West,259,0.0,0.0,100,0.00,,,0.00,WeatherDisplay:10.37,2013-09-25 11:00:00,
2013-09-25 07:10:00,70.0,70.0,28.64,West,272,0.0,0.0,100,0.00,,,0.00,WeatherDisplay:10.37,2013-09-25 12:10:00,
2013-09-25 07:15:00,69.8,69.8,28.64,West,272,0.0,0.0,100,0.00,,,0.00,WeatherDisplay:10.37,2013-09-25 12:15:00,
2013-09-25 07:20:00,69.8,69.8,28.64,West,272,0.0,0.0,100,0.00,,,0.00,WeatherDisplay:10.37,2013-09-25 12:20:00,
2013-09-25 07:25:00,70.0,70.0,28.64,WNW,294,0.0,1.2,100,0.00,,,0.00,WeatherDisplay:10.37,2013-09-25 12:25:00,
2013-09-25 07:27:00,70.1,70.1,28.64,WNW,291,0.0,0.0,100,0.00,,,0.00,WeatherDisplay:10.37,2013-09-25 12:27:00,
2013-09-25 07:32:00,70.3,70.3,28.64,WNW,292,0.0,0.0,100,0.00,,,0.00,WeatherDisplay:10.37,2013-09-25 12:32:00,
2013-09-25 07:37:00,70.5,70.5,28.64,WNW,291,0.0,0.0,100,0.00,,,0.00,WeatherDisplay:10.37,2013-09-25 12:37:00,
2013-09-25 07:42:00,70.6,70.6,28.64,WNW,291,0.0,0.0,100,0.00,,,0.00,WeatherDisplay:10.37,2013-09-25 12:42:00,
2013-09-25 07:47:00,70.7,70.7,28.64,WNW,291,0.0,1.2,100,0.00,,,0.00,WeatherDisplay:10.37,2013-09-25 12:47:00,
2013-09-25 07:52:00,71.0,71.0,28.64,WNW,291,0.1,1.2,100,0.00,,,0.00,WeatherDisplay:10.37,2013-09-25 12:52:00,
2013-09-25 07:57:00,71.2,71.2,28.64,WNW,291,0.0,0.0,100,0.00,,,0.00,WeatherDisplay:10.37,2013-09-25 12:57:00,
2013-09-25 08:02:00,71.6,71.6,28.64,WNW,291,0.0,0.0,100,0.00,,,0.00,WeatherDisplay:10.37,2013-09-25 13:02:00,
2013-09-25 08:07:00,71.9,71.9,28.64,WNW,291,0.0,0.0,100,0.00,,,0.00,WeatherDisplay:10.37,2013-09-25 13:07:00,
2013-09-25 08:12:00,72.4,72.4,28.64,NW,315,0.0,0.0,100,0.00,,,0.00,WeatherDisplay:10.37,2013-09-25 13:12:00,
2013-09-25 08:17:00,72.7,72.7,28.65,NW,313,0.0,0.0,100,0.00,,,0.00,WeatherDisplay:10.37,2013-09-25 13:17:00,
2013-09-25 08:22:00,73.1,73.1,28.65,WNW,293,0.0,0.0,100,0.00,,,0.00,WeatherDisplay:10.37,2013-09-25 13:22:00,
2013-09-25 08:27:00,73.5,72.0,28.65,WNW,295,0.3,1.2,95,0.00,,,0.00,WeatherDisplay:10.37,2013-09-25 13:27:00,
2013-09-25 08:32:00,74.0,72.2,28.65,WNW,291,0.0,0.0,94,0.00,,,0.00,WeatherDisplay:10.37,2013-09-25 13:32:00,
2013-09-25 08:37:00,74.7,72.9,28.65,NW,309,0.0,0.0,94,0.00,,,0.00,WeatherDisplay:10.37,2013-09-25 13:37:00,
2013-09-25 08:42:00,75.4,73.2,28.65,NW,310,0.0,1.9,93,0.00,,,0.00,WeatherDisplay:10.37,2013-09-25 13:42:00,
2013-09-25 08:46:00,76.1,73.6,28.65,ENE,67,0.1,0.0,92,0.00,,,0.00,WeatherDisplay:10.37,2013-09-25 13:46:00,
2013-09-25 08:51:00,76.6,73.1,28.65,WNW,303,0.3,1.9,89,0.00,,,0.00,WeatherDisplay:10.37,2013-09-25 13:51:00,
2013-09-25 08:56:00,76.9,73.1,28.65,WNW,287,0.0,0.0,88,0.00,,,0.00,WeatherDisplay:10.37,2013-09-25 13:56:00,
2013-09-25 09:01:00,77.4,73.6,28.65,WNW,291,0.6,3.5,88,0.00,,,0.00,WeatherDisplay:10.37,2013-09-25 14:01:00,
2013-09-25 09:06:00,77.9,73.4,28.65,WNW,286,0.2,2.3,86,0.00,,,0.00,WeatherDisplay:10.37,2013-09-25 14:06:00,
2013-09-25 09:11:00,78.2,73.0,28.65,WNW,282,0.6,3.5,84,0.00,,,0.00,WeatherDisplay:10.37,2013-09-25 14:11:00,
2013-09-25 09:16:00,78.6,73.4,28.65,WNW,294,0.2,2.3,84,0.00,,,0.00,WeatherDisplay:10.37,2013-09-25 14:16:00,
2013-09-25 09:21:00,78.8,72.8,28.65,WNW,298,0.1,2.3,82,0.00,,,0.00,WeatherDisplay:10.37,2013-09-25 14:21:00,
2013-09-25 09:26:00,79.3,73.3,28.65,West,275,0.3,3.5,82,0.00,,,0.00,WeatherDisplay:10.37,2013-09-25 14:26:00,
2013-09-25 09:31:00,79.6,72.9,28.66,NW,324,0.8,3.5,80,0.00,,,0.00,WeatherDisplay:10.37,2013-09-25 14:31:00,
2013-09-25 09:36:00,80.1,73.4,28.66,WNW,300,0.4,2.3,80,0.00,,,0.00,WeatherDisplay:10.37,2013-09-25 14:36:00,
2013-09-25 09:41:00,80.4,72.9,28.66,WSW,254,0.7,2.3,78,0.00,,,0.00,WeatherDisplay:10.37,2013-09-25 14:41:00,
2013-09-25 09:46:00,80.8,73.7,28.67,West,266,0.6,3.2,79,0.00,,,0.00,WeatherDisplay:10.37,2013-09-25 14:46:00,
2013-09-25 09:51:00,81.0,73.1,28.66,West,279,4.4,8.1,77,0.00,,,0.00,WeatherDisplay:10.37,2013-09-25 14:51:00,
2013-09-25 09:56:00,81.2,73.3,28.67,WNW,288,2.5,6.9,77,0.00,,,0.00,WeatherDisplay:10.37,2013-09-25 14:56:00,
2013-09-25 10:01:00,81.8,73.5,28.67,WNW,289,1.5,2.3,76,0.00,,,0.00,WeatherDisplay:10.37,2013-09-25 15:01:00,
2013-09-25 10:06:00,81.8,73.1,28.67,NW,308,1.8,3.5,75,0.00,,,0.00,WeatherDisplay:10.37,2013-09-25 15:06:00,
2013-09-25 10:11:00,82.2,72.7,28.67,SW,228,3.0,5.8,73,0.00,,,0.00,WeatherDisplay:10.37,2013-09-25 15:11:00,
2013-09-25 10:16:00,82.9,73.4,28.67,WSW,244,1.8,3.5,73,0.00,,,0.00,WeatherDisplay:10.37,2013-09-25 15:16:00,
2013-09-25 10:21:00,83.6,74.0,28.67,WNW,287,0.1,1.2,73,0.00,,,0.00,WeatherDisplay:10.37,2013-09-25 15:21:00,
2013-09-25 10:26:00,84.2,73.3,28.67,WSW,253,2.8,4.6,70,0.00,,,0.00,WeatherDisplay:10.37,2013-09-25 15:26:00,
2013-09-25 10:31:00,84.4,73.5,28.67,NW,314,3.8,3.8,70,0.00,,,0.00,WeatherDisplay:10.37,2013-09-25 15:31:00,
2013-09-25 10:36:00,84.5,73.6,28.67,WNW,283,1.4,3.5,70,0.00,,,0.00,WeatherDisplay:10.37,2013-09-25 15:36:00,
2013-09-25 10:41:00,85.0,73.7,28.67,WNW,300,0.2,2.3,69,0.00,,,0.00,WeatherDisplay:10.37,2013-09-25 15:41:00,
2013-09-25 10:46:00,85.1,73.3,28.67,WSW,244,1.4,5.8,68,0.00,,,0.00,WeatherDisplay:10.37,2013-09-25 15:46:00,
2013-09-25 10:51:00,85.3,73.1,28.67,WNW,287,3.4,5.8,67,0.00,,,0.00,WeatherDisplay:10.37,2013-09-25 15:51:00,
2013-09-25 10:56:00,85.4,73.2,28.67,SW,218,1.6,3.5,67,0.00,,,0.00,WeatherDisplay:10.37,2013-09-25 15:56:00,
2013-09-25 11:01:00,85.6,73.4,28.68,West,280,0.6,5.8,67,0.00,,,0.00,WeatherDisplay:10.37,2013-09-25 16:01:00,
2013-09-25 11:06:00,86.3,73.1,28.67,WSW,245,1.2,5.8,65,0.00,,,0.00,WeatherDisplay:10.37,2013-09-25 16:06:00,
2013-09-25 11:11:00,87.1,73.4,28.68,WNW,303,0.9,2.3,64,0.00,,,0.00,WeatherDisplay:10.37,2013-09-25 16:11:00,
2013-09-25 11:16:00,87.2,73.1,28.68,West,268,0.1,2.3,63,0.00,,,0.00,WeatherDisplay:10.37,2013-09-25 16:16:00,
2013-09-25 11:21:00,87.4,73.7,28.68,WNW,282,0.2,1.2,64,0.00,,,0.00,WeatherDisplay:10.37,2013-09-25 16:21:00,
2013-09-25 11:26:00,87.8,72.7,28.68,West,275,0.0,0.0,61,0.00,,,0.00,WeatherDisplay:10.37,2013-09-25 16:26:00,
2013-09-25 11:31:00,88.2,73.5,28.68,WNW,303,0.1,0.0,62,0.00,,,0.00,WeatherDisplay:10.37,2013-09-25 16:31:00,
2013-09-25 11:36:00,88.4,74.7,28.67,NW,305,0.0,0.0,64,0.00,,,0.00,WeatherDisplay:10.37,2013-09-25 16:36:00,
2013-09-25 11:41:00,88.9,74.2,28.68,WNW,294,0.0,0.0,62,0.00,,,0.00,WeatherDisplay:10.37,2013-09-25 16:41:00,
2013-09-25 11:46:00,88.7,74.0,28.68,West,277,0.3,2.3,62,0.00,,,0.00,WeatherDisplay:10.37,2013-09-25 16:46:00,
2013-09-25 11:51:00,89.1,73.9,28.67,ESE,122,0.7,2.1,61,0.00,,,0.00,WeatherDisplay:10.37,2013-09-25 16:51:00,
2013-09-25 11:56:00,89.5,73.8,28.68,WNW,289,2.1,3.5,60,0.00,,,0.00,WeatherDisplay:10.37,2013-09-25 16:56:00,
2013-09-25 12:01:00,89.5,73.8,28.67,NW,311,0.0,0.0,60,0.00,,,0.00,WeatherDisplay:10.37,2013-09-25 17:01:00,
2013-09-25 12:06:00,90.0,74.2,28.67,SW,231,0.0,0.0,60,0.00,,,0.00,WeatherDisplay:10.37,2013-09-25 17:06:00,
2013-09-25 12:11:00,90.7,72.8,28.67,SW,235,1.3,2.3,56,0.00,,,0.00,WeatherDisplay:10.37,2013-09-25 17:11:00,
2013-09-25 12:16:00,91.0,72.6,28.67,SSE,165,0.8,2.1,55,0.00,,,0.00,WeatherDisplay:10.37,2013-09-25 17:16:00,
2013-09-25 12:21:00,90.6,72.2,28.67,West,270,0.2,1.2,55,0.00,,,0.00,WeatherDisplay:10.37,2013-09-25 17:21:00,
2013-09-25 12:26:00,90.7,72.3,28.67,SW,216,2.8,3.5,55,0.00,,,0.00,WeatherDisplay:10.37,2013-09-25 17:26:00,
2013-09-25 12:31:00,90.7,71.2,28.67,WSW,258,0.7,2.3,53,0.00,,,0.00,WeatherDisplay:10.37,2013-09-25 17:31:00,
2013-09-25 12:36:00,90.4,73.6,28.67,NW,307,0.0,0.0,58,0.00,,,0.00,WeatherDisplay:10.37,2013-09-25 17:36:00,
2013-09-25 12:41:00,90.4,73.6,28.67,East,98,1.6,5.8,58,0.00,,,0.00,WeatherDisplay:10.37,2013-09-25 17:41:00,
2013-09-25 12:46:00,89.6,72.3,28.66,ESE,120,1.7,6.9,57,0.00,,,0.00,WeatherDisplay:10.37,2013-09-25 17:46:00,
2013-09-25 12:51:00,89.6,74.4,28.66,ESE,112,1.3,5.8,61,0.00,,,0.00,WeatherDisplay:10.37,2013-09-25 17:51:00,
2013-09-25 12:56:00,89.9,70.5,28.66,SE,130,3.9,4.2,53,0.00,,,0.00,WeatherDisplay:10.37,2013-09-25 17:56:00,
2013-09-25 13:01:00,90.0,72.7,28.66,WSW,258,0.2,3.5,57,0.00,,,0.00,WeatherDisplay:10.37,2013-09-25 18:01:00,
2013-09-25 13:06:00,90.3,71.9,28.66,ESE,120,0.0,2.3,55,0.00,,,0.00,WeatherDisplay:10.37,2013-09-25 18:06:00,
2013-09-25 13:11:00,90.8,72.4,28.66,SSE,147,0.9,2.3,55,0.00,,,0.00,WeatherDisplay:10.37,2013-09-25 18:11:00,
2013-09-25 13:16:00,90.6,68.8,28.66,SSE,167,0.7,2.1,49,0.00,,,0.00,WeatherDisplay:10.37,2013-09-25 18:16:00,
2013-09-25 13:21:00,90.8,68.4,28.66,East,95,0.9,5.8,48,0.00,,,0.00,WeatherDisplay:10.37,2013-09-25 18:21:00,
2013-09-25 13:26:00,90.4,68.0,28.66,East,85,0.3,2.3,48,0.00,,,0.00,WeatherDisplay:10.37,2013-09-25 18:26:00,
2013-09-25 13:31:00,90.5,65.6,28.65,SSE,161,0.1,1.2,44,0.00,,,0.00,WeatherDisplay:10.37,2013-09-25 18:31:00,
2013-09-25 13:36:00,90.5,67.5,28.65,SE,144,2.1,3.5,47,0.00,,,0.00,WeatherDisplay:10.37,2013-09-25 18:36:00,
2013-09-25 13:41:00,90.9,62.5,28.65,South,188,1.4,4.6,39,0.00,,,0.00,WeatherDisplay:10.37,2013-09-25 18:41:00,
2013-09-25 13:46:00,90.9,66.0,28.65,ESE,111,1.6,6.9,44,0.00,,,0.00,WeatherDisplay:10.37,2013-09-25 18:46:00,
2013-09-25 13:51:00,90.5,64.9,28.65,ESE,106,0.4,2.3,43,0.00,,,0.00,WeatherDisplay:10.37,2013-09-25 18:51:00,
2013-09-25 13:56:00,90.9,67.9,28.64,SE,130,2.5,4.6,47,0.00,,,0.00,WeatherDisplay:10.37,2013-09-25 18:56:00,
2013-09-25 14:01:00,91.0,66.1,28.64,East,98,4.1,6.9,44,0.00,,,0.00,WeatherDisplay:10.37,2013-09-25 19:01:00,
2013-09-25 14:06:00,90.4,66.8,28.64,ESE,111,1.8,5.8,46,0.00,,,0.00,WeatherDisplay:10.37,2013-09-25 19:06:00,
2013-09-25 14:11:00,90.2,65.3,28.64,ESE,116,1.6,4.6,44,0.00,,,0.00,WeatherDisplay:10.37,2013-09-25 19:11:00,
2013-09-25 14:16:00,90.6,65.0,28.64,East,99,1.3,3.5,43,0.00,,,0.00,WeatherDisplay:10.37,2013-09-25 19:16:00,
2013-09-25 14:21:00,90.5,64.3,28.64,SE,138,4.8,5.8,42,0.00,,,0.00,WeatherDisplay:10.37,2013-09-25 19:21:00,
2013-09-25 14:26:00,90.3,64.8,28.63,SE,128,2.7,5.8,43,0.00,,,0.00,WeatherDisplay:10.37,2013-09-25 19:26:00,
2013-09-25 14:31:00,90.7,66.4,28.63,SSE,156,5.4,8.1,45,0.00,,,0.00,WeatherDisplay:10.37,2013-09-25 19:31:00,
2013-09-25 14:36:00,90.5,66.3,28.63,SE,137,3.0,5.8,45,0.00,,,0.00,WeatherDisplay:10.37,2013-09-25 19:36:00,
2013-09-25 14:41:00,90.4,66.8,28.62,South,170,6.0,7.4,46,0.00,,,0.00,WeatherDisplay:10.37,2013-09-25 19:41:00,
2013-09-25 14:46:00,90.2,67.9,28.62,ESE,106,3.7,5.8,48,0.00,,,0.00,WeatherDisplay:10.37,2013-09-25 19:46:00,
2013-09-25 14:51:00,90.1,67.2,28.62,East,97,1.8,5.8,47,0.00,,,0.00,WeatherDisplay:10.37,2013-09-25 19:51:00,
2013-09-25 14:56:00,89.7,67.4,28.62,ENE,78,3.3,5.8,48,0.00,,,0.00,WeatherDisplay:10.37,2013-09-25 19:56:00,
2013-09-25 15:01:00,89.6,66.1,28.62,SSE,148,5.4,6.9,46,0.00,,,0.00,WeatherDisplay:10.37,2013-09-25 20:01:00,
2013-09-25 15:06:00,89.5,65.4,28.61,SE,135,3.8,5.8,45,0.00,,,0.00,WeatherDisplay:10.37,2013-09-25 20:06:00,
2013-09-25 15:11:00,89.6,66.1,28.61,East,99,1.7,5.8,46,0.00,,,0.00,WeatherDisplay:10.37,2013-09-25 20:11:00,
2013-09-25 15:16:00,89.6,66.1,28.61,SSW,208,2.8,5.8,46,0.00,,,0.00,WeatherDisplay:10.37,2013-09-25 20:16:00,
2013-09-25 15:21:00,89.8,66.3,28.61,ESE,107,4.6,8.1,46,0.00,,,0.00,WeatherDisplay:10.37,2013-09-25 20:21:00,
2013-09-25 15:26:00,89.7,64.9,28.61,SE,125,4.7,6.3,44,0.00,,,0.00,WeatherDisplay:10.37,2013-09-25 20:26:00,
2013-09-25 15:31:00,89.4,65.9,28.61,ESE,111,5.0,5.8,46,0.00,,,0.00,WeatherDisplay:10.37,2013-09-25 20:31:00,
2013-09-25 15:36:00,89.8,68.1,28.61,SSE,149,4.3,6.9,49,0.00,,,0.00,WeatherDisplay:10.37,2013-09-25 20:36:00,
2013-09-25 15:41:00,89.3,67.6,28.61,ESE,105,3.8,6.9,49,0.00,,,0.00,WeatherDisplay:10.37,2013-09-25 20:41:00,
2013-09-25 15:46:00,89.2,66.9,28.61,SE,132,4.7,9.2,48,0.00,,,0.00,WeatherDisplay:10.37,2013-09-25 20:46:00,
2013-09-25 15:51:00,88.8,69.5,28.61,ESE,107,1.2,5.2,53,0.00,,,0.00,WeatherDisplay:10.37,2013-09-25 20:51:00,
2013-09-25 15:56:00,89.0,69.6,28.60,NE,52,6.9,9.2,53,0.00,,,0.00,WeatherDisplay:10.37,2013-09-25 20:56:00,
2013-09-25 16:01:00,88.5,68.1,28.60,SE,125,3.6,6.9,51,0.00,,,0.00,WeatherDisplay:10.37,2013-09-25 21:01:00,
2013-09-25 16:06:00,88.4,68.5,28.60,East,88,3.2,5.8,52,0.00,,,0.00,WeatherDisplay:10.37,2013-09-25 21:06:00,
2013-09-25 16:11:00,88.6,70.9,28.60,SSE,156,4.1,6.9,56,0.00,,,0.00,WeatherDisplay:10.37,2013-09-25 21:11:00,
2013-09-25 16:16:00,88.4,70.7,28.60,ESE,111,2.6,4.6,56,0.00,,,0.00,WeatherDisplay:10.37,2013-09-25 21:16:00,
2013-09-25 16:21:00,88.5,69.7,28.60,East,99,0.3,2.3,54,0.00,,,0.00,WeatherDisplay:10.37,2013-09-25 21:21:00,
2013-09-25 16:26:00,88.5,69.2,28.60,ESE,116,3.4,5.8,53,0.00,,,0.00,WeatherDisplay:10.37,2013-09-25 21:26:00,
2013-09-25 16:31:00,88.5,69.2,28.60,East,90,3.9,6.3,53,0.00,,,0.00,WeatherDisplay:10.37,2013-09-25 21:31:00,
2013-09-25 16:36:00,88.4,67.4,28.60,SE,129,2.6,6.9,50,0.00,,,0.00,WeatherDisplay:10.37,2013-09-25 21:36:00,
2013-09-25 16:41:00,88.6,67.0,28.60,SE,133,2.8,5.8,49,0.00,,,0.00,WeatherDisplay:10.37,2013-09-25 21:41:00,
2013-09-25 16:46:00,88.5,65.7,28.60,ESE,102,2.9,5.8,47,0.00,,,0.00,WeatherDisplay:10.37,2013-09-25 21:46:00,
2013-09-25 16:51:00,88.4,67.4,28.60,East,96,2.2,5.8,50,0.00,,,0.00,WeatherDisplay:10.37,2013-09-25 21:51:00,
2013-09-25 16:56:00,88.2,67.2,28.60,ESE,118,3.3,4.2,50,0.00,,,0.00,WeatherDisplay:10.37,2013-09-25 21:56:00,
2013-09-25 17:01:00,88.0,65.2,28.60,ESE,123,6.6,8.1,47,0.00,,,0.00,WeatherDisplay:10.37,2013-09-25 22:01:00,
2013-09-25 17:06:00,87.9,66.9,28.60,ESE,111,2.0,3.5,50,0.00,,,0.00,WeatherDisplay:10.37,2013-09-25 22:06:00,
2013-09-25 17:11:00,88.2,66.6,28.60,SE,132,2.0,5.8,49,0.00,,,0.00,WeatherDisplay:10.37,2013-09-25 22:11:00,
2013-09-25 17:16:00,88.3,66.1,28.60,East,99,2.5,6.9,48,0.00,,,0.00,WeatherDisplay:10.37,2013-09-25 22:16:00,
2013-09-25 17:21:00,88.2,64.2,28.60,East,101,2.3,5.8,45,0.00,,,0.00,WeatherDisplay:10.37,2013-09-25 22:21:00,
2013-09-25 17:26:00,88.1,62.8,28.60,SSE,156,5.4,8.1,43,0.00,,,0.00,WeatherDisplay:10.37,2013-09-25 22:26:00,
2013-09-25 17:31:00,87.8,63.2,28.60,SE,137,2.9,5.8,44,0.00,,,0.00,WeatherDisplay:10.37,2013-09-25 22:31:00,
2013-09-25 17:36:00,87.8,64.4,28.60,SE,129,4.0,4.2,46,0.00,,,0.00,WeatherDisplay:10.37,2013-09-25 22:36:00,
2013-09-25 17:41:00,87.5,64.8,28.60,SE,141,3.0,6.9,47,0.00,,,0.00,WeatherDisplay:10.37,2013-09-25 22:41:00,
2013-09-25 17:46:00,87.5,62.9,28.60,SE,130,3.4,6.9,44,0.00,,,0.00,WeatherDisplay:10.37,2013-09-25 22:46:00,
2013-09-25 17:51:00,87.2,64.5,28.60,SE,139,2.8,5.8,47,0.00,,,0.00,WeatherDisplay:10.37,2013-09-25 22:51:00,
2013-09-25 17:56:00,87.0,63.7,28.60,SE,132,4.8,5.8,46,0.00,,,0.00,WeatherDisplay:10.37,2013-09-25 22:56:00,
2013-09-25 18:01:00,86.9,63.6,28.60,SE,142,2.9,4.6,46,0.00,,,0.00,WeatherDisplay:10.37,2013-09-25 23:01:00,
2013-09-25 18:06:00,86.6,64.0,28.60,SE,125,3.8,6.3,47,0.00,,,0.00,WeatherDisplay:10.37,2013-09-25 23:06:00,
2013-09-25 18:11:00,86.5,64.5,28.60,SE,140,2.7,5.8,48,0.00,,,0.00,WeatherDisplay:10.37,2013-09-25 23:11:00,
2013-09-25 18:16:00,86.3,64.3,28.60,ESE,114,2.7,5.8,48,0.00,,,0.00,WeatherDisplay:10.37,2013-09-25 23:16:00,
2013-09-25 18:21:00,86.1,64.1,28.60,SSE,167,4.9,5.8,48,0.00,,,0.00,WeatherDisplay:10.37,2013-09-25 23:21:00,
2013-09-25 18:26:00,86.0,64.0,28.59,ESE,117,3.2,5.8,48,0.00,,,0.00,WeatherDisplay:10.37,2013-09-25 23:26:00,
2013-09-25 18:31:00,85.7,64.3,28.60,SSE,153,0.5,3.5,49,0.00,,,0.00,WeatherDisplay:10.37,2013-09-25 23:31:00,
2013-09-25 18:36:00,85.5,65.9,28.60,SE,131,3.2,4.6,52,0.00,,,0.00,WeatherDisplay:10.37,2013-09-25 23:36:00,
2013-09-25 18:41:00,85.2,67.7,28.60,SSE,153,0.7,2.3,56,0.00,,,0.00,WeatherDisplay:10.37,2013-09-25 23:41:00,
2013-09-25 18:46:00,84.9,68.0,28.60,SE,133,1.4,3.5,57,0.00,,,0.00,WeatherDisplay:10.37,2013-09-25 23:46:00,
2013-09-25 18:51:00,84.6,69.2,28.60,SE,130,0.6,1.2,60,0.00,,,0.00,WeatherDisplay:10.37,2013-09-25 23:51:00,
2013-09-25 18:56:00,84.2,67.3,28.60,ESE,106,2.9,5.8,57,0.00,,,0.00,WeatherDisplay:10.37,2013-09-25 23:56:00,
2013-09-25 19:01:00,83.8,67.4,28.60,ESE,107,2.6,5.8,58,0.00,,,0.00,WeatherDisplay:10.37,2013-09-26 00:01:00,
2013-09-25 19:06:00,83.4,68.1,28.60,SE,142,1.3,3.5,60,0.00,,,0.00,WeatherDisplay:10.37,2013-09-26 00:06:00,
2013-09-25 19:11:00,82.9,69.0,28.60,ESE,121,2.1,3.5,63,0.00,,,0.00,WeatherDisplay:10.37,2013-09-26 00:11:00,
2013-09-25 19:16:00,82.4,69.0,28.60,SE,144,1.2,4.6,64,0.00,,,0.00,WeatherDisplay:10.37,2013-09-26 00:16:00,
2013-09-25 19:21:00,82.0,69.1,28.60,East,92,2.4,4.6,65,0.00,,,0.00,WeatherDisplay:10.37,2013-09-26 00:21:00,
2013-09-25 19:26:00,81.7,69.7,28.60,SSE,161,0.7,2.3,67,0.00,,,0.00,WeatherDisplay:10.37,2013-09-26 00:26:00,
2013-09-25 19:31:00,81.3,69.7,28.60,ESE,116,0.3,3.5,68,0.00,,,0.00,WeatherDisplay:10.37,2013-09-26 00:31:00,
2013-09-25 19:36:00,81.0,70.3,28.60,SE,127,1.1,3.5,70,0.00,,,0.00,WeatherDisplay:10.37,2013-09-26 00:36:00,
2013-09-25 19:41:00,80.7,70.8,28.60,SE,126,1.3,2.3,72,0.00,,,0.00,WeatherDisplay:10.37,2013-09-26 00:41:00,
2013-09-25 19:46:00,80.6,71.1,28.61,SSE,161,2.3,5.8,73,0.00,,,0.00,WeatherDisplay:10.37,2013-09-26 00:46:00,
2013-09-25 19:51:00,80.4,71.3,28.60,ESE,122,0.6,1.2,74,0.00,,,0.00,WeatherDisplay:10.37,2013-09-26 00:51:00,
2013-09-25 19:56:00,80.3,71.3,28.61,SSE,156,0.7,3.5,74,0.00,,,0.00,WeatherDisplay:10.37,2013-09-26 00:56:00,
2013-09-25 20:01:00,80.2,71.6,28.61,SE,135,0.5,1.2,75,0.00,,,0.00,WeatherDisplay:10.37,2013-09-26 01:01:00,
2013-09-25 20:06:00,80.0,71.8,28.61,ESE,118,1.1,3.5,76,0.00,,,0.00,WeatherDisplay:10.37,2013-09-26 01:06:00,
2013-09-25 20:11:00,79.9,71.7,28.61,SE,141,1.5,3.5,76,0.00,,,0.00,WeatherDisplay:10.37,2013-09-26 01:11:00,
2013-09-25 20:16:00,79.8,71.9,28.61,ESE,106,1.0,2.3,77,0.00,,,0.00,WeatherDisplay:10.37,2013-09-26 01:16:00,
2013-09-25 20:21:00,79.7,71.8,28.61,ESE,114,0.6,1.2,77,0.00,,,0.00,WeatherDisplay:10.37,2013-09-26 01:21:00,
2013-09-25 20:26:00,79.6,71.8,28.61,SE,128,0.9,3.5,77,0.00,,,0.00,WeatherDisplay:10.37,2013-09-26 01:26:00,
2013-09-25 20:31:00,79.4,71.6,28.61,SE,127,0.9,3.5,77,0.00,,,0.00,WeatherDisplay:10.37,2013-09-26 01:31:00,
2013-09-25 20:37:00,79.3,71.5,28.61,SSE,153,0.5,3.5,77,0.00,,,0.00,WeatherDisplay:10.37,2013-09-26 01:37:00,
2013-09-25 20:42:00,79.1,71.6,28.61,SE,137,0.5,2.3,78,0.00,,,0.00,WeatherDisplay:10.37,2013-09-26 01:42:00,
2013-09-25 20:47:00,79.1,71.6,28.61,SE,131,0.4,0.0,78,0.00,,,0.00,WeatherDisplay:10.37,2013-09-26 01:47:00,
2013-09-25 20:52:00,79.0,71.9,28.61,ESE,121,0.0,1.2,79,0.00,,,0.00,WeatherDisplay:10.37,2013-09-26 01:52:00,
2013-09-25 20:57:00,78.8,71.7,28.61,ESE,117,0.9,3.5,79,0.00,,,0.00,WeatherDisplay:10.37,2013-09-26 01:57:00,
2013-09-25 21:02:00,78.7,72.0,28.62,SE,128,1.2,2.3,80,0.00,,,0.00,WeatherDisplay:10.37,2013-09-26 02:02:00,
2013-09-25 21:07:00,78.6,71.9,28.61,SE,138,0.2,1.2,80,0.00,,,0.00,WeatherDisplay:10.37,2013-09-26 02:07:00,
2013-09-25 21:12:00,78.5,72.2,28.62,SE,135,0.3,1.2,81,0.00,,,0.00,WeatherDisplay:10.37,2013-09-26 02:12:00,
2013-09-25 21:17:00,78.4,72.1,28.62,SE,126,0.1,1.2,81,0.00,,,0.00,WeatherDisplay:10.37,2013-09-26 02:17:00,
2013-09-25 21:22:00,78.4,72.4,28.62,SE,124,0.5,2.3,82,0.00,,,0.00,WeatherDisplay:10.37,2013-09-26 02:22:00,
2013-09-25 21:27:00,78.4,72.4,28.62,SE,135,1.3,2.3,82,0.00,,,0.00,WeatherDisplay:10.37,2013-09-26 02:27:00,
2013-09-25 21:32:00,78.4,72.4,28.62,SE,132,1.0,2.3,82,0.00,,,0.00,WeatherDisplay:10.37,2013-09-26 02:32:00,
2013-09-25 21:37:00,78.3,72.7,28.62,ESE,107,0.8,3.5,83,0.00,,,0.00,WeatherDisplay:10.37,2013-09-26 02:37:00,
2013-09-25 21:42:00,78.3,72.7,28.62,SE,145,0.4,2.3,83,0.00,,,0.00,WeatherDisplay:10.37,2013-09-26 02:42:00,
2013-09-25 21:47:00,78.1,72.9,28.62,ESE,102,0.5,3.5,84,0.00,,,0.00,WeatherDisplay:10.37,2013-09-26 02:47:00,
2013-09-25 21:52:00,78.0,72.8,28.62,ESE,123,0.3,1.2,84,0.00,,,0.00,WeatherDisplay:10.37,2013-09-26 02:52:00,
2013-09-25 21:57:00,77.9,72.7,28.62,SE,133,0.2,1.2,84,0.00,,,0.00,WeatherDisplay:10.37,2013-09-26 02:57:00,
2013-09-25 22:02:00,77.9,72.7,28.62,SE,146,0.3,1.2,84,0.00,,,0.00,WeatherDisplay:10.37,2013-09-26 03:02:00,
2013-09-25 22:07:00,77.9,72.7,28.62,ESE,114,0.1,1.2,84,0.00,,,0.00,WeatherDisplay:10.37,2013-09-26 03:07:00,
2013-09-25 22:12:00,77.8,72.6,28.62,SE,138,0.2,2.3,84,0.00,,,0.00,WeatherDisplay:10.37,2013-09-26 03:12:00,
2013-09-25 22:17:00,77.7,72.8,28.62,SE,128,0.2,1.2,85,0.00,,,0.00,WeatherDisplay:10.37,2013-09-26 03:17:00,
2013-09-25 22:22:00,77.6,72.7,28.62,ESE,122,0.4,2.3,85,0.00,,,0.00,WeatherDisplay:10.37,2013-09-26 03:22:00,
2013-09-25 22:27:00,77.6,72.7,28.62,ESE,122,0.3,1.2,85,0.00,,,0.00,WeatherDisplay:10.37,2013-09-26 03:27:00,
2013-09-25 22:32:00,77.6,73.1,28.62,SSE,163,0.2,1.2,86,0.00,,,0.00,WeatherDisplay:10.37,2013-09-26 03:32:00,
2013-09-25 22:37:00,77.5,73.0,28.62,SE,146,0.1,1.2,86,0.00,,,0.00,WeatherDisplay:10.37,2013-09-26 03:37:00,
2013-09-25 22:42:00,77.5,73.0,28.62,ESE,122,0.7,2.3,86,0.00,,,0.00,WeatherDisplay:10.37,2013-09-26 03:42:00,
2013-09-25 22:47:00,77.4,72.9,28.62,SE,126,0.1,1.2,86,0.00,,,0.00,WeatherDisplay:10.37,2013-09-26 03:47:00,
2013-09-25 22:52:00,77.3,72.8,28.62,ESE,110,0.8,4.6,86,0.00,,,0.00,WeatherDisplay:10.37,2013-09-26 03:52:00,
2013-09-25 22:57:00,77.4,72.9,28.62,SE,135,0.1,1.2,86,0.00,,,0.00,WeatherDisplay:10.37,2013-09-26 03:57:00,
2013-09-25 23:01:00,77.3,72.8,28.62,SE,125,1.0,2.3,86,0.00,,,0.00,WeatherDisplay:10.37,2013-09-26 04:01:00,
2013-09-25 23:06:00,77.2,72.7,28.62,SE,142,0.2,1.0,86,0.00,,,0.00,WeatherDisplay:10.37,2013-09-26 04:06:00,
2013-09-25 23:11:00,77.1,72.6,28.62,SSE,159,0.2,1.2,86,0.00,,,0.00,WeatherDisplay:10.37,2013-09-26 04:11:00,
2013-09-25 23:16:00,77.0,72.8,28.62,SSE,149,0.2,1.2,87,0.00,,,0.00,WeatherDisplay:10.37,2013-09-26 04:16:00,
2013-09-25 23:21:00,77.0,72.8,28.62,SE,146,0.3,1.2,87,0.00,,,0.00,WeatherDisplay:10.37,2013-09-26 04:21:00,
2013-09-25 23:26:00,76.9,72.7,28.62,ESE,117,0.4,0.0,87,0.00,,,0.00,WeatherDisplay:10.37,2013-09-26 04:26:00,
2013-09-25 23:31:00,76.9,72.7,28.62,SE,135,0.5,2.3,87,0.00,,,0.00,WeatherDisplay:10.37,2013-09-26 04:31:00,
2013-09-25 23:36:00,76.8,72.6,28.62,SE,124,1.2,2.1,87,0.00,,,0.00,WeatherDisplay:10.37,2013-09-26 04:36:00,
2013-09-25 23:41:00,76.9,72.7,28.62,SE,126,0.1,3.5,87,0.00,,,0.00,WeatherDisplay:10.37,2013-09-26 04:41:00,
2013-09-25 23:46:00,76.9,72.7,28.62,SE,130,0.2,1.2,87,0.00,,,0.00,WeatherDisplay:10.37,2013-09-26 04:46:00,
2013-09-25 23:51:00,77.0,73.2,28.62,SE,136,1.4,3.5,88,0.00,,,0.00,WeatherDisplay:10.37,2013-09-26 04:51:00,
2013-09-25 23:56:00,77.1,72.9,28.62,SSE,151,0.9,3.5,87,0.00,,,0.00,WeatherDisplay:10.37,2013-09-26 04:56:00,